createdAt,value
2018-06-11T00:01:23.634Z,21.30
2018-06-11T00:03:51.715Z,21.20
2018-06-11T00:06:19.783Z,21.20
2018-06-11T00:08:47.833Z,21.10
2018-06-11T00:11:15.919Z,21.20
2018-06-11T00:13:44.031Z,21.00
2018-06-11T00:16:12.170Z,21.00
2018-06-11T00:18:40.285Z,21.00
2018-06-11T00:21:08.466Z,21.10
2018-06-11T00:23:36.541Z,21.10
2018-06-11T00:26:04.720Z,21.00
2018-06-11T00:28:32.775Z,20.90
2018-06-11T00:31:00.842Z,20.90
2018-06-11T00:33:28.942Z,20.90
2018-06-11T00:35:57.010Z,20.90
2018-06-11T00:38:25.111Z,21.00
2018-06-11T00:40:53.195Z,21.00
2018-06-11T00:43:21.299Z,20.90
2018-06-11T00:45:49.399Z,20.80
2018-06-11T00:48:17.531Z,20.80
2018-06-11T00:50:45.583Z,20.70
2018-06-11T00:53:13.642Z,20.80
2018-06-11T00:55:58.567Z,20.80
2018-06-11T00:58:26.655Z,20.90
2018-06-11T01:00:54.713Z,20.80
2018-06-11T01:03:22.850Z,20.80
2018-06-11T01:05:50.930Z,20.80
2018-06-11T01:08:19.016Z,20.60
2018-06-11T01:10:47.087Z,20.50
2018-06-11T01:13:15.209Z,20.50
2018-06-11T01:15:43.360Z,20.40
2018-06-11T01:18:11.397Z,20.40
2018-06-11T01:20:39.497Z,20.40
2018-06-11T01:23:07.601Z,20.50
2018-06-11T01:25:35.672Z,20.40
2018-06-11T01:28:03.825Z,20.50
2018-06-11T01:30:31.925Z,20.40
2018-06-11T01:33:00.003Z,20.40
2018-06-11T01:35:28.981Z,20.40
2018-06-11T01:37:57.038Z,20.40
2018-06-11T01:40:31.985Z,20.30
2018-06-11T01:43:00.057Z,20.40
2018-06-11T01:45:28.126Z,20.30
2018-06-11T01:47:56.180Z,20.30
2018-06-11T01:50:24.307Z,20.40
2018-06-11T01:52:52.395Z,20.50
2018-06-11T01:55:20.481Z,20.50
2018-06-11T01:57:48.527Z,20.30
2018-06-11T02:00:16.632Z,20.10
2018-06-11T02:02:44.762Z,20.10
2018-06-11T02:05:12.868Z,20.10
2018-06-11T02:07:40.938Z,20.10
2018-06-11T02:10:09.371Z,20.20
2018-06-11T02:12:37.468Z,20.20
2018-06-11T02:15:05.627Z,20.20
2018-06-11T02:17:33.698Z,20.10
2018-06-11T02:20:01.771Z,20.10
2018-06-11T02:22:29.857Z,20.10
2018-06-11T02:24:57.927Z,20.20
2018-06-11T02:27:26.084Z,20.20
2018-06-11T02:29:54.170Z,20.20
2018-06-11T02:32:22.323Z,20.10
2018-06-11T02:34:50.415Z,20.10
2018-06-11T02:37:18.511Z,20.10
2018-06-11T02:39:46.562Z,20.00
2018-06-11T02:42:14.658Z,20.10
2018-06-11T02:44:42.712Z,20.20
2018-06-11T02:47:10.812Z,20.20
2018-06-11T02:49:38.863Z,20.10
2018-06-11T02:52:06.933Z,20.10
2018-06-11T02:54:35.075Z,20.10
2018-06-11T02:57:03.175Z,20.10
2018-06-11T02:59:31.273Z,20.10
2018-06-11T03:01:59.354Z,20.00
2018-06-11T03:04:27.453Z,19.90
2018-06-11T03:06:55.632Z,19.90
2018-06-11T03:09:23.731Z,19.90
2018-06-11T03:11:51.831Z,19.90
2018-06-11T03:14:19.879Z,19.90
2018-06-11T03:16:47.933Z,19.90
2018-06-11T03:19:16.029Z,19.90
2018-06-11T03:21:44.096Z,19.80
2018-06-11T03:24:12.187Z,19.80
2018-06-11T03:26:40.260Z,19.60
2018-06-11T03:29:08.315Z,19.50
2018-06-11T03:31:36.387Z,19.60
2018-06-11T03:34:04.451Z,19.60
2018-06-11T03:36:32.584Z,19.60
2018-06-11T03:39:00.667Z,19.60
2018-06-11T03:41:28.767Z,19.70
2018-06-11T03:43:56.812Z,19.80
2018-06-11T03:46:24.926Z,19.80
2018-06-11T03:48:52.985Z,19.80
2018-06-11T03:51:21.103Z,19.80
2018-06-11T03:53:49.219Z,19.90
2018-06-11T03:56:17.367Z,20.00
2018-06-11T03:58:45.472Z,19.90
2018-06-11T04:01:13.572Z,19.80
2018-06-11T04:03:41.659Z,19.80
2018-06-11T04:06:09.744Z,19.80
2018-06-11T04:08:37.838Z,19.80
2018-06-11T04:11:06.034Z,19.70
2018-06-11T04:13:34.072Z,19.70
2018-06-11T04:16:02.201Z,19.70
2018-06-11T04:18:30.347Z,19.70
2018-06-11T04:20:58.439Z,19.70
2018-06-11T04:23:26.507Z,19.80
2018-06-11T04:25:54.628Z,19.90
2018-06-11T04:28:22.700Z,20.00
2018-06-11T04:30:50.765Z,20.00
2018-06-11T04:33:18.865Z,20.10
2018-06-11T04:35:46.944Z,20.10
2018-06-11T04:38:15.044Z,20.10
2018-06-11T04:40:43.171Z,20.10
2018-06-11T04:43:11.251Z,20.10
2018-06-11T04:45:39.420Z,20.10
2018-06-11T04:48:07.478Z,20.20
2018-06-11T04:50:35.600Z,20.30
2018-06-11T04:53:03.717Z,20.30
2018-06-11T04:55:31.868Z,20.40
2018-06-11T04:57:59.987Z,20.40
2018-06-11T05:00:28.097Z,20.50
2018-06-11T05:02:56.204Z,20.50
2018-06-11T05:05:24.423Z,20.60
2018-06-11T05:07:52.523Z,20.80
2018-06-11T05:10:20.600Z,20.80
2018-06-11T05:12:48.699Z,20.90
2018-06-11T05:15:16.823Z,20.90
2018-06-11T05:17:44.893Z,20.80
2018-06-11T05:20:13.092Z,20.90
2018-06-11T05:22:41.143Z,21.00
2018-06-11T05:25:09.259Z,21.00
2018-06-11T05:27:37.360Z,20.90
2018-06-11T05:30:05.528Z,20.80
2018-06-11T05:32:33.598Z,21.00
2018-06-11T05:35:01.639Z,21.10
2018-06-11T05:37:29.768Z,21.20
2018-06-11T05:39:57.927Z,21.20
2018-06-11T05:42:26.021Z,21.30
2018-06-11T05:44:54.100Z,21.20
2018-06-11T05:47:22.244Z,21.30
2018-06-11T05:49:50.385Z,21.40
2018-06-11T05:52:18.563Z,21.50
2018-06-11T05:54:46.676Z,21.60
2018-06-11T05:57:15.400Z,21.60
2018-06-11T05:59:43.559Z,21.50
2018-06-11T06:02:11.718Z,21.60
2018-06-11T06:04:40.841Z,21.50
2018-06-11T06:07:08.938Z,21.70
2018-06-11T06:09:37.120Z,21.80
2018-06-11T06:12:05.239Z,22.00
2018-06-11T06:14:33.400Z,22.00
2018-06-11T06:17:01.467Z,22.10
2018-06-11T06:19:29.597Z,22.20
2018-06-11T06:21:57.652Z,22.30
2018-06-11T06:24:25.818Z,22.40
2018-06-11T06:26:53.944Z,22.40
2018-06-11T06:29:22.083Z,22.50
2018-06-11T06:31:50.227Z,22.50
2018-06-11T06:34:18.417Z,22.50
2018-06-11T06:36:46.507Z,22.50
2018-06-11T06:39:14.627Z,22.20
2018-06-11T06:41:42.729Z,22.30
2018-06-11T06:44:10.883Z,22.30
2018-06-11T06:46:39.016Z,22.20
2018-06-11T06:49:07.098Z,22.30
2018-06-11T06:51:35.214Z,22.50
2018-06-11T06:54:03.393Z,22.50
2018-06-11T06:56:31.566Z,22.60
2018-06-11T06:58:59.687Z,22.70
2018-06-11T07:01:27.835Z,22.80
2018-06-11T07:03:55.930Z,22.90
2018-06-11T07:06:24.104Z,22.80
2018-06-11T07:08:52.297Z,22.80
2018-06-11T07:11:20.432Z,22.90
2018-06-11T07:13:48.588Z,23.00
2018-06-11T07:18:44.715Z,23.20
2018-06-11T07:21:12.823Z,23.20
2018-06-11T07:23:40.923Z,23.30
2018-06-11T07:26:09.046Z,23.20
2018-06-11T07:31:05.186Z,23.20
2018-06-11T07:33:33.248Z,23.30
2018-06-11T07:36:01.383Z,23.30
2018-06-11T07:38:29.507Z,23.30
2018-06-11T07:40:57.587Z,23.30
2018-06-11T07:43:25.747Z,23.40
2018-06-11T07:48:21.909Z,23.30
2018-06-11T07:50:50.042Z,23.40
2018-06-11T07:53:18.151Z,23.40
2018-06-11T07:55:46.235Z,23.30
2018-06-11T07:58:14.308Z,23.30
2018-06-11T08:00:42.429Z,23.50
2018-06-11T08:03:10.552Z,23.60
2018-06-11T08:05:38.739Z,23.60
2018-06-11T08:08:06.830Z,23.60
2018-06-11T08:10:34.922Z,23.80
2018-06-11T08:13:03.023Z,23.90
2018-06-11T08:15:31.148Z,24.00
2018-06-11T08:17:59.290Z,24.00
2018-06-11T08:20:27.464Z,24.10
2018-06-11T08:22:55.606Z,24.10
2018-06-11T08:25:23.752Z,24.20
2018-06-11T08:27:51.891Z,24.20
2018-06-11T08:30:20.003Z,24.10
2018-06-11T08:32:48.128Z,24.10
2018-06-11T08:35:16.265Z,24.20
2018-06-11T08:37:44.433Z,24.20
2018-06-11T08:40:12.589Z,24.20
2018-06-11T08:42:40.784Z,24.40
2018-06-11T08:45:08.950Z,24.60
2018-06-11T08:47:37.061Z,24.70
2018-06-11T08:50:05.264Z,24.70
2018-06-11T08:52:33.337Z,24.60
2018-06-11T08:55:01.455Z,24.40
2018-06-11T08:57:29.575Z,24.40
2018-06-11T09:02:25.817Z,24.70
2018-06-11T09:04:53.948Z,24.80
2018-06-11T09:07:22.057Z,24.80
2018-06-11T09:09:50.184Z,24.90
2018-06-11T09:12:18.282Z,24.90
2018-06-11T09:14:46.395Z,24.90
2018-06-11T09:17:14.568Z,24.80
2018-06-11T09:19:42.705Z,24.90
2018-06-11T09:22:11.549Z,24.90
2018-06-11T09:24:39.642Z,25.00
2018-06-11T09:27:07.759Z,25.20
2018-06-11T09:29:35.846Z,25.10
2018-06-11T09:32:04.179Z,25.10
2018-06-11T09:34:32.320Z,25.10
2018-06-11T09:37:00.584Z,25.00
2018-06-11T09:39:28.649Z,24.90
2018-06-11T09:41:56.804Z,24.80
2018-06-11T09:44:24.999Z,24.90
2018-06-11T09:46:53.153Z,25.00
2018-06-11T09:49:21.242Z,25.00
2018-06-11T09:51:49.330Z,25.10
2018-06-11T09:54:17.463Z,25.20
2018-06-11T09:56:45.577Z,25.20
2018-06-11T09:59:13.716Z,25.20
2018-06-11T10:01:41.804Z,25.20
2018-06-11T10:04:09.959Z,25.30
2018-06-11T10:06:38.072Z,25.30
2018-06-11T10:09:08.193Z,25.30
2018-06-11T10:11:36.313Z,25.30
2018-06-11T10:14:04.887Z,25.40
2018-06-11T10:16:33.040Z,25.40
2018-06-11T10:19:01.438Z,25.60
2018-06-11T10:21:29.539Z,25.70
2018-06-11T10:23:57.662Z,25.80
2018-06-11T10:28:53.887Z,26.20
2018-06-11T10:31:22.092Z,26.20
2018-06-11T10:33:50.327Z,26.40
2018-06-11T10:36:18.580Z,26.30
2018-06-11T10:38:46.700Z,26.20
2018-06-11T10:41:14.836Z,26.20
2018-06-11T10:43:42.922Z,26.10
2018-06-11T10:46:11.540Z,26.20
2018-06-11T10:48:39.630Z,26.10
2018-06-11T10:51:07.746Z,25.90
2018-06-11T10:53:35.836Z,26.10
2018-06-11T10:56:04.244Z,26.30
2018-06-11T10:58:32.419Z,26.40
2018-06-11T11:01:00.559Z,26.60
2018-06-11T11:03:28.792Z,26.70
2018-06-11T11:05:57.009Z,26.90
2018-06-11T11:08:25.145Z,27.00
2018-06-11T11:10:53.238Z,27.00
2018-06-11T11:13:21.403Z,27.00
2018-06-11T11:15:49.636Z,27.00
2018-06-11T11:18:17.813Z,27.20
2018-06-11T11:20:45.958Z,27.20
2018-06-11T11:23:14.056Z,27.00
2018-06-11T11:25:42.227Z,26.70
2018-06-11T11:28:10.423Z,26.60
2018-06-11T11:30:38.538Z,26.60
2018-06-11T11:33:06.701Z,26.70
2018-06-11T11:35:35.812Z,26.70
2018-06-11T11:38:03.990Z,26.90
2018-06-11T11:40:32.148Z,26.90
2018-06-11T11:43:00.710Z,27.00
2018-06-11T11:45:28.875Z,27.10
2018-06-11T11:47:57.043Z,27.20
2018-06-11T11:50:25.119Z,27.30
2018-06-11T11:52:53.239Z,27.20
2018-06-11T11:55:21.413Z,27.00
2018-06-11T11:57:49.618Z,27.00
2018-06-11T12:00:17.796Z,27.20
2018-06-11T12:02:45.915Z,27.20
2018-06-11T12:05:14.080Z,27.10
2018-06-11T12:07:42.379Z,27.10
2018-06-11T12:10:10.488Z,27.20
2018-06-11T12:12:38.659Z,27.20
2018-06-11T12:15:07.658Z,27.20
2018-06-11T12:17:35.862Z,27.30
2018-06-11T12:22:32.132Z,27.10
2018-06-11T12:25:00.295Z,27.00
2018-06-11T12:27:28.461Z,26.80
2018-06-11T12:29:56.663Z,26.90
2018-06-11T12:32:24.891Z,26.90
2018-06-11T12:34:53.001Z,27.00
2018-06-11T12:37:21.241Z,27.00
2018-06-11T12:39:49.374Z,27.00
2018-06-11T12:42:17.551Z,26.90
2018-06-11T12:44:45.687Z,27.00
2018-06-11T12:47:13.855Z,26.80
2018-06-11T12:49:41.944Z,26.90
2018-06-11T12:52:10.099Z,27.00
2018-06-11T12:54:38.211Z,26.90
2018-06-11T12:57:06.499Z,27.00
2018-06-11T12:59:34.656Z,26.90
2018-06-11T13:02:02.807Z,26.80
2018-06-11T13:04:30.940Z,26.60
2018-06-11T13:06:59.107Z,26.70
2018-06-11T13:11:55.396Z,26.40
2018-06-11T13:14:23.543Z,26.30
2018-06-11T13:16:51.695Z,26.30
2018-06-11T13:19:19.856Z,26.50
2018-06-11T13:21:47.974Z,26.50
2018-06-11T13:24:16.095Z,26.60
2018-06-11T13:26:44.215Z,26.60
2018-06-11T13:29:12.354Z,26.30
2018-06-11T13:31:40.462Z,26.30
2018-06-11T13:34:08.590Z,26.50
2018-06-11T13:36:36.820Z,26.60
2018-06-11T13:39:07.985Z,26.50
2018-06-11T13:41:36.285Z,26.70
2018-06-11T13:44:04.564Z,26.50
2018-06-11T13:46:32.718Z,26.40
2018-06-11T13:49:00.911Z,26.40
2018-06-11T13:51:29.070Z,26.20
2018-06-11T13:53:57.292Z,26.20
2018-06-11T13:56:25.464Z,26.30
2018-06-11T13:58:53.571Z,26.30
2018-06-11T14:01:21.708Z,26.50
2018-06-11T14:03:49.848Z,26.50
2018-06-11T14:06:18.063Z,26.60
2018-06-11T14:08:46.169Z,26.60
2018-06-11T14:11:14.299Z,26.30
2018-06-11T14:13:42.514Z,26.30
2018-06-11T14:16:10.699Z,26.20
2018-06-11T14:18:38.862Z,26.20
2018-06-11T14:21:07.122Z,26.30
2018-06-11T14:23:35.307Z,26.30
2018-06-11T14:26:03.475Z,26.50
2018-06-11T14:28:31.664Z,26.70
2018-06-11T14:30:59.808Z,26.90
2018-06-11T14:33:27.916Z,26.20
2018-06-11T14:35:56.064Z,26.00
2018-06-11T14:38:24.264Z,26.30
2018-06-11T14:40:52.355Z,26.40
2018-06-11T14:43:20.487Z,26.60
2018-06-11T14:45:48.650Z,26.70
2018-06-11T14:48:16.775Z,26.50
2018-06-11T14:50:44.916Z,26.60
2018-06-11T14:53:13.079Z,26.50
2018-06-11T14:55:41.270Z,26.20
2018-06-11T14:58:09.848Z,26.00
2018-06-11T15:00:37.970Z,25.70
2018-06-11T15:03:06.168Z,25.80
2018-06-11T15:05:34.328Z,25.60
2018-06-11T15:08:02.534Z,25.50
2018-06-11T15:10:30.647Z,25.30
2018-06-11T15:12:58.787Z,25.20
2018-06-11T15:15:26.937Z,25.20
2018-06-11T15:20:23.101Z,24.80
2018-06-11T15:22:51.260Z,24.70
2018-06-11T15:27:47.481Z,24.50
2018-06-11T15:30:15.636Z,24.40
2018-06-11T15:32:43.744Z,24.20
2018-06-11T15:40:08.004Z,23.90
2018-06-11T15:42:36.182Z,24.00
2018-06-11T15:45:04.363Z,24.10
2018-06-11T15:47:32.528Z,24.10
2018-06-11T15:50:00.678Z,24.20
2018-06-11T15:52:28.891Z,24.20
2018-06-11T15:54:57.015Z,24.10
2018-06-11T15:57:25.210Z,23.80
2018-06-11T15:59:53.397Z,23.40
2018-06-11T16:02:21.687Z,23.30
2018-06-11T16:04:49.896Z,23.00
2018-06-11T16:07:18.108Z,23.00
2018-06-11T16:09:46.295Z,22.70
2018-06-11T16:12:14.478Z,21.90
2018-06-11T16:14:42.591Z,21.60
2018-06-11T16:17:10.782Z,21.30
2018-06-11T16:19:38.906Z,21.00
2018-06-11T16:24:35.183Z,20.60
2018-06-11T16:27:03.385Z,20.60
2018-06-11T16:29:31.528Z,20.60
2018-06-11T16:31:59.807Z,20.80
2018-06-11T16:34:28.042Z,20.70
2018-06-11T16:39:24.490Z,20.90
2018-06-11T16:41:52.703Z,21.00
2018-06-11T16:44:20.919Z,21.00
2018-06-11T16:46:49.093Z,21.00
2018-06-11T16:49:17.349Z,20.80
2018-06-11T16:51:45.604Z,20.70
2018-06-11T16:54:13.769Z,20.60
2018-06-11T16:56:42.081Z,20.40
2018-06-11T16:59:11.957Z,20.20
2018-06-11T17:01:40.176Z,20.10
2018-06-11T17:04:08.412Z,20.20
2018-06-11T17:06:36.648Z,20.20
2018-06-11T17:09:07.547Z,20.30
2018-06-11T17:11:36.685Z,20.30
2018-06-11T17:14:04.966Z,20.40
2018-06-11T17:16:33.165Z,20.10
2018-06-11T17:19:01.408Z,20.20
2018-06-11T17:21:29.569Z,20.30
2018-06-11T17:23:57.864Z,20.20
2018-06-11T17:26:26.169Z,20.30
2018-06-11T17:28:54.409Z,20.40
2018-06-11T17:31:22.645Z,20.30
2018-06-11T17:33:50.871Z,20.00
2018-06-11T17:36:19.110Z,20.10
2018-06-11T17:38:47.292Z,20.30
2018-06-11T17:43:43.774Z,20.00
2018-06-11T17:46:12.044Z,19.90
2018-06-11T17:48:40.407Z,20.00
2018-06-11T17:51:08.736Z,19.80
2018-06-11T17:53:36.949Z,19.80
2018-06-11T17:56:05.249Z,19.90
2018-06-11T17:58:33.654Z,19.80
2018-06-11T18:01:01.843Z,19.50
2018-06-11T18:03:30.131Z,19.50
2018-06-11T18:05:58.396Z,19.50
2018-06-11T18:08:26.759Z,19.40
2018-06-11T18:10:55.018Z,19.50
2018-06-11T18:15:51.426Z,19.80
2018-06-11T18:18:19.619Z,19.90
2018-06-11T18:20:47.896Z,20.00
2018-06-11T18:23:16.107Z,20.00
2018-06-11T18:25:44.384Z,20.00
2018-06-11T18:28:12.660Z,20.00
2018-06-11T18:30:40.893Z,20.00
2018-06-11T18:33:09.163Z,20.10
2018-06-11T18:35:37.455Z,20.10
2018-06-11T18:38:05.743Z,20.20
2018-06-11T18:40:34.957Z,20.20
2018-06-11T18:43:03.540Z,20.20
2018-06-11T18:45:31.824Z,20.30
2018-06-11T18:48:00.037Z,20.40
2018-06-11T18:50:28.373Z,20.30
2018-06-11T18:52:56.623Z,20.00
2018-06-11T18:55:24.956Z,20.00
2018-06-11T18:57:53.257Z,20.10
2018-06-11T19:00:21.592Z,20.20
2018-06-11T19:02:49.854Z,20.10
2018-06-11T19:05:18.174Z,20.20
2018-06-11T19:07:46.500Z,20.20
2018-06-11T19:10:14.847Z,20.00
2018-06-11T19:12:43.096Z,20.10
2018-06-11T19:15:11.440Z,20.10
2018-06-11T19:17:39.718Z,20.10
2018-06-11T19:20:08.036Z,20.10
2018-06-11T19:22:36.379Z,20.20
2018-06-11T19:27:32.899Z,20.20
2018-06-11T19:30:01.186Z,20.30
2018-06-11T19:32:29.448Z,20.40
2018-06-11T19:34:57.759Z,20.30
2018-06-11T19:37:26.041Z,20.40
2018-06-11T19:39:54.311Z,20.30
2018-06-11T19:42:22.797Z,20.40
2018-06-11T19:44:51.008Z,20.50
2018-06-11T19:47:19.289Z,20.50
2018-06-11T19:49:47.556Z,20.50
2018-06-11T19:52:15.821Z,20.50
2018-06-11T19:54:44.085Z,20.40
2018-06-11T19:57:12.332Z,20.30
2018-06-11T19:59:40.598Z,20.30
2018-06-11T20:02:09.190Z,20.30
2018-06-11T20:04:37.409Z,20.40
2018-06-11T20:07:05.631Z,20.40
2018-06-11T20:09:34.045Z,20.40
2018-06-11T20:12:02.317Z,20.50
2018-06-11T20:14:30.598Z,20.50
2018-06-11T20:19:27.014Z,20.60
2018-06-11T20:21:55.351Z,20.60
2018-06-11T20:24:23.562Z,20.60
2018-06-11T20:26:51.891Z,20.50
2018-06-11T20:29:20.177Z,20.60
2018-06-11T20:31:48.388Z,20.70
2018-06-11T20:34:16.643Z,20.80
2018-06-11T20:36:45.002Z,20.60
2018-06-11T20:39:13.216Z,20.50
2018-06-11T20:41:41.604Z,20.30
2018-06-11T20:44:09.903Z,20.20
2018-06-11T20:46:38.106Z,20.10
2018-06-11T20:49:06.406Z,20.00
2018-06-11T20:51:35.494Z,20.00
2018-06-11T20:54:03.773Z,20.10
2018-06-11T20:56:32.167Z,20.20
2018-06-11T20:59:00.379Z,20.30
2018-06-11T21:01:28.804Z,20.30
2018-06-11T21:03:57.130Z,20.40
2018-06-11T21:06:25.313Z,20.30
2018-06-11T21:08:53.624Z,20.10
2018-06-11T21:11:22.003Z,20.10
2018-06-11T21:13:50.225Z,20.30
2018-06-11T21:16:18.572Z,20.20
2018-06-11T21:18:46.770Z,20.10
2018-06-11T21:21:14.969Z,20.10
2018-06-11T21:23:43.210Z,20.00
2018-06-11T21:26:11.344Z,20.10
2018-06-11T21:31:07.770Z,20.20
2018-06-11T21:33:36.005Z,20.20
2018-06-11T21:36:04.363Z,20.10
2018-06-11T21:38:32.695Z,20.00
2018-06-11T21:41:00.928Z,20.10
2018-06-11T21:43:29.089Z,20.00
2018-06-11T21:45:57.260Z,19.90
2018-06-11T21:48:25.492Z,19.80
2018-06-11T21:50:53.734Z,19.80
2018-06-11T21:53:21.952Z,19.90
2018-06-11T21:55:50.179Z,19.80
2018-06-11T21:58:18.378Z,19.90
2018-06-11T22:00:46.589Z,19.80
2018-06-11T22:03:14.723Z,19.80
2018-06-11T22:05:42.950Z,19.80
2018-06-11T22:08:11.660Z,19.90
2018-06-11T22:10:39.926Z,19.80
2018-06-11T22:13:08.188Z,19.60
2018-06-11T22:15:36.416Z,19.50
2018-06-11T22:18:05.541Z,19.40
2018-06-11T22:20:33.730Z,19.60
2018-06-11T22:23:01.926Z,19.60
2018-06-11T22:25:30.141Z,19.50
2018-06-11T22:27:58.331Z,19.40
2018-06-11T22:30:26.532Z,19.50
2018-06-11T22:32:54.722Z,19.50
2018-06-11T22:35:22.846Z,19.50
2018-06-11T22:37:50.972Z,19.60
2018-06-11T22:40:19.143Z,19.60
2018-06-11T22:42:47.268Z,19.50
2018-06-11T22:45:15.456Z,19.50
2018-06-11T22:47:43.638Z,19.50
2018-06-11T22:50:11.788Z,19.70
2018-06-11T22:52:40.013Z,19.70
2018-06-11T22:55:08.188Z,19.70
2018-06-11T22:57:36.342Z,19.60
2018-06-11T23:00:04.600Z,19.50
2018-06-11T23:02:32.700Z,19.50
2018-06-11T23:05:00.848Z,19.60
2018-06-11T23:07:29.045Z,19.70
2018-06-11T23:09:57.197Z,19.80
2018-06-11T23:12:25.364Z,19.80
2018-06-11T23:14:53.555Z,19.90
2018-06-11T23:17:21.785Z,19.90
2018-06-11T23:19:49.906Z,19.90
2018-06-11T23:22:18.164Z,19.80
2018-06-11T23:24:46.342Z,19.70
2018-06-11T23:27:14.491Z,19.40
2018-06-11T23:29:42.668Z,19.40
2018-06-11T23:32:10.775Z,19.50
2018-06-11T23:34:38.895Z,19.50
2018-06-11T23:37:07.059Z,19.40
2018-06-11T23:39:35.180Z,19.50
2018-06-11T23:42:03.485Z,19.60
2018-06-11T23:44:31.617Z,19.70
2018-06-11T23:46:59.756Z,19.70
2018-06-11T23:49:27.863Z,19.70
2018-06-11T23:51:56.024Z,19.70
2018-06-11T23:54:24.280Z,19.60
2018-06-11T23:56:52.544Z,19.60
2018-06-11T23:59:20.710Z,19.50
